Weather History for KVAD - October, 2013

Change the Weather History Date:

Friday, October 4, 2013

  Actual Average Record
Temperature  
Mean Temperature 76 °F -  
Max Temperature 86 °F 79 °F 87 °F (2002)
Min Temperature 66 °F 62 °F 49 °F (2010)
Cooling Degree Days 11    
Growing Degree Days 26 (Base 50)    
Moisture  
Dew Point 69 °F    
Average Humidity 94    
Maximum Humidity 100    
Minimum Humidity 54    
Precipitation  
Precipitation 0.00 in - - ()
Sea Level Pressure  
Sea Level Pressure 30.09 in    
Wind  
Wind Speed 2 mph (ENE)    
Max Wind Speed 8 mph    
Max Gust Speed -    
Visibility 4 miles    
Events Fog    
Averages and records for this station are not official NWS values.
T = Trace of Precipitation, MM = Missing Value Source: NWS Daily Summary

Daily Weather History Graph

Daily Weather History Graph

Search for Another Location

Airport or City:

Trip Planner

Search our weather history database for the weather conditions in past years. The results will help you decide how hot, cold, wet, or windy it might be!

Date:

Astronomy

Oct. 04, 2013 Rise Set
Actual Time 7:28 AM EDT 7:13 PM EDT
Civil Twilight 7:04 AM EDT 7:38 PM EDT
Nautical Twilight 6:36 AM EDT 8:05 PM EDT
Astronomical Twilight 6:08 AM EDT 8:34 PM EDT
Moon 7:02 AM EDT (10/4) 6:58 PM EDT (10/4)
Length of Visible Light 12h 33m
Length of Day
11h 45m
Waning Crescent, 0% of the Moon is Illuminated
Oct 4
Waning Crescent
Oct 4
New
Oct 11
First Quarter
Oct 18
Full
Oct 26
Last Quarter

Hourly Weather History & Observations

Time (EDT) Temp. Heat Index Dew Point Humidity Pressure Visibility Wind Dir Wind Speed Gust Speed Precip Events Conditions
12:58 AM 70.3 °F - 68.7 °F 95% 30.09 in 10.0 mi ESE 2.3 mph - N/A   Clear
1:58 AM 70.0 °F - 69.6 °F 99% 30.08 in 10.0 mi ESE 2.3 mph - N/A   Clear
2:58 AM 69.8 °F - 69.4 °F 99% 30.07 in 10.0 mi ENE 3.5 mph - N/A   Clear
3:26 AM 69.8 °F - 69.8 °F 100% 30.06 in 10.0 mi East 3.5 mph - N/A   Clear
3:58 AM 69.1 °F - 68.7 °F 99% 30.06 in 8.0 mi ESE 2.3 mph - N/A   Clear
4:00 AM 69.8 °F - 68.0 °F 94% 30.06 in 7.0 mi ESE 2.3 mph - N/A   Clear
4:04 AM 69.8 °F - 69.8 °F 100% 30.07 in 5.0 mi East 1.2 mph - N/A   Clear
4:16 AM 69.8 °F - 69.8 °F 100% 30.06 in 6.0 mi ENE 2.3 mph - N/A   Clear
4:18 AM 69.8 °F - 69.8 °F 100% 30.06 in 8.0 mi NE 1.2 mph - N/A   Clear
4:22 AM 69.8 °F - 68.0 °F 94% 30.07 in 10.0 mi ENE 1.2 mph - N/A   Clear
4:27 AM 69.8 °F - 68.0 °F 94% 30.06 in 10.0 mi ENE 1.2 mph - N/A   Partly Cloudy
4:35 AM 69.8 °F - 69.8 °F 100% 30.06 in 9.0 mi ESE 1.2 mph - N/A   Scattered Clouds
4:39 AM 69.8 °F - 69.8 °F 100% 30.06 in 7.0 mi ESE 1.2 mph - N/A   Mostly Cloudy
4:41 AM 69.8 °F - 69.8 °F 100% 30.07 in 6.0 mi East 1.2 mph - N/A   Mostly Cloudy
4:47 AM 69.8 °F - 68.0 °F 94% 30.07 in 5.0 mi NE 1.2 mph - N/A   Mostly Cloudy
4:51 AM 68.0 °F - 68.0 °F 100% 30.07 in 3.0 mi ENE 2.3 mph - N/A   Mostly Cloudy
4:53 AM 68.0 °F - 68.0 °F 100% 30.07 in 2.5 mi ENE 2.3 mph - N/A   Overcast
4:57 AM 68.0 °F - 68.0 °F 100% 30.07 in 1.5 mi East 2.3 mph - N/A   Overcast
4:58 AM 68.0 °F - 68.0 °F 100% 30.07 in 1.5 mi ENE 2.3 mph - N/A   Overcast
5:00 AM 68.0 °F - 68.0 °F 100% 30.07 in 1.2 mi East 2.3 mph - N/A   Overcast
5:02 AM 68.0 °F - 68.0 °F 100% 30.07 in 1.0 mi East 2.3 mph - N/A   Mist
5:04 AM 68.0 °F - 68.0 °F 100% 30.07 in 0.8 mi East 2.3 mph - N/A   Mist
5:06 AM 68.0 °F - 68.0 °F 100% 30.07 in 0.8 mi East 2.3 mph - N/A   Mist
5:08 AM 68.0 °F - 68.0 °F 100% 30.07 in 0.5 mi East 2.3 mph - N/A Fog Fog
5:18 AM 68.0 °F - 68.0 °F 100% 30.07 in 0.2 mi East 2.3 mph - N/A Fog Fog
5:28 AM 68.0 °F - 68.0 °F 100% 30.06 in 0.5 mi East 3.5 mph - N/A Fog Fog
5:42 AM 68.0 °F - 68.0 °F 100% 30.07 in 0.8 mi East 2.3 mph - N/A   Mist
5:46 AM 68.0 °F - 68.0 °F 100% 30.07 in 1.0 mi East 2.3 mph - N/A   Mist
5:56 AM 68.0 °F - 68.0 °F 100% 30.07 in 0.8 mi East 2.3 mph - N/A   Mist
5:58 AM 68.5 °F - 68.5 °F 100% 30.07 in 0.8 mi East 2.3 mph - N/A   Mist
6:08 AM 68.0 °F - 68.0 °F 100% 30.08 in 1.0 mi NE 1.2 mph - N/A   Mist
6:24 AM 66.2 °F - 66.2 °F 100% 30.08 in 1.2 mi ENE 2.3 mph - N/A   Mostly Cloudy
6:34 AM 68.0 °F - 66.2 °F 94% 30.08 in 1.0 mi ESE 1.2 mph - N/A   Mist
6:46 AM 68.0 °F - 68.0 °F 100% 30.08 in 0.8 mi Calm Calm - N/A   Mist
6:48 AM 66.2 °F - 66.2 °F 100% 30.08 in 0.8 mi Calm Calm - N/A   Mist
6:58 AM 66.7 °F - 66.4 °F 99% 30.09 in 0.8 mi NNE 2.3 mph - N/A   Mist
7:18 AM 68.0 °F - 68.0 °F 100% 30.09 in 1.0 mi NNE 3.5 mph - N/A   Mist
7:20 AM 68.0 °F - 68.0 °F 100% 30.09 in 1.0 mi NNE 2.3 mph - N/A   Mist
7:24 AM 68.0 °F - 68.0 °F 100% 30.09 in 1.2 mi NE 2.3 mph - N/A   Overcast
7:26 AM 68.0 °F - 68.0 °F 100% 30.09 in 1.2 mi NNE 1.2 mph - N/A   Overcast
7:28 AM 68.0 °F - 68.0 °F 100% 30.09 in 1.0 mi NNE 1.2 mph - N/A   Mist
7:32 AM 68.0 °F - 68.0 °F 100% 30.09 in 1.2 mi North 1.2 mph - N/A   Overcast
7:34 AM 68.0 °F - 68.0 °F 100% 30.09 in 1.0 mi North 1.2 mph - N/A   Overcast
7:36 AM 68.0 °F - 68.0 °F 100% 30.10 in 1.0 mi North 1.2 mph - N/A   Overcast
7:42 AM 68.0 °F - 68.0 °F 100% 30.10 in 1.0 mi NNE 1.2 mph - N/A   Overcast
7:44 AM 68.0 °F - 68.0 °F 100% 30.10 in 1.2 mi NE 1.2 mph - N/A   Overcast
7:48 AM 68.0 °F - 68.0 °F 100% 30.10 in 1.5 mi NE 2.3 mph - N/A   Overcast
7:52 AM 68.0 °F - 68.0 °F 100% 30.10 in 2.0 mi NE 2.3 mph - N/A   Overcast
7:56 AM 68.0 °F - 68.0 °F 100% 30.10 in 1.5 mi ENE 2.3 mph - N/A   Overcast
7:58 AM 68.0 °F - 68.0 °F 100% 30.11 in 1.2 mi NE 2.3 mph - N/A   Overcast
8:00 AM 68.0 °F - 68.0 °F 100% 30.11 in 1.0 mi NE 2.3 mph - N/A   Overcast
8:02 AM 68.0 °F - 68.0 °F 100% 30.11 in 0.8 mi NE 2.3 mph - N/A   Overcast
8:04 AM 68.0 °F - 68.0 °F 100% 30.11 in 0.8 mi NE 2.3 mph - N/A   Overcast
8:06 AM 68.0 °F - 68.0 °F 100% 30.11 in 1.0 mi NE 2.3 mph - N/A   Overcast
8:08 AM 68.0 °F - 68.0 °F 100% 30.11 in 1.5 mi NE 2.3 mph - N/A   Overcast
8:10 AM 69.8 °F - 69.8 °F 100% 30.11 in 2.5 mi NE 2.3 mph - N/A   Overcast
8:12 AM 69.8 °F - 69.8 °F 100% 30.11 in 4.0 mi ENE 2.3 mph - N/A   Overcast
8:26 AM 69.8 °F - 69.8 °F 100% 30.11 in 2.5 mi East 2.3 mph - N/A   Overcast
8:30 AM 69.8 °F - 69.8 °F 100% 30.11 in 1.8 mi East 1.2 mph - N/A   Overcast
8:36 AM 69.8 °F - 69.8 °F 100% 30.12 in 2.0 mi Calm Calm - N/A   Overcast
8:42 AM 69.8 °F - 69.8 °F 100% 30.12 in 3.0 mi East 2.3 mph - N/A   Overcast
8:58 AM 69.6 °F - 69.6 °F 100% 30.14 in 6.0 mi Calm Calm - N/A   Overcast
9:58 AM 72.9 °F - 72.9 °F 100% 30.14 in 10.0 mi SE 2.3 mph - N/A   Mostly Cloudy
10:02 AM 73.4 °F - 73.4 °F 100% 30.13 in 10.0 mi Variable 1.2 mph - N/A   Scattered Clouds
10:58 AM 79.9 °F - 72.9 °F 79% 30.13 in 10.0 mi ESE 2.3 mph - N/A   Scattered Clouds
11:58 AM 83.1 °F 87.3 °F 70.3 °F 65% 30.13 in 10.0 mi SE 5.8 mph - N/A   Mostly Cloudy
12:58 PM 86.0 °F 90.1 °F 69.3 °F 57% 30.12 in 10.0 mi ENE 8.1 mph - N/A   Partly Cloudy
1:58 PM 83.5 °F 86.9 °F 68.7 °F 61% 30.09 in 10.0 mi East 5.8 mph - N/A   Mostly Cloudy
2:58 PM 86.2 °F 90.4 °F 69.4 °F 57% 30.06 in 10.0 mi NNE 6.9 mph - N/A   Partly Cloudy
3:58 PM 85.8 °F 89.1 °F 68.2 °F 55% 30.05 in 10.0 mi Variable 3.5 mph - N/A   Partly Cloudy
4:58 PM 86.4 °F 90.0 °F 68.7 °F 55% 30.04 in 10.0 mi ENE 6.9 mph - N/A   Partly Cloudy
5:58 PM 85.8 °F 88.8 °F 67.6 °F 54% 30.04 in 10.0 mi NE 5.8 mph - N/A   Clear
6:58 PM 82.0 °F 85.5 °F 69.1 °F 65% 30.05 in 10.0 mi ENE 4.6 mph - N/A   Clear
7:58 PM 76.8 °F - 69.1 °F 77% 30.06 in 10.0 mi NE 4.6 mph - N/A   Clear
8:58 PM 74.1 °F - 68.5 °F 83% 30.09 in 10.0 mi NE 3.5 mph - N/A   Clear
9:58 PM 73.2 °F - 67.5 °F 82% 30.09 in 10.0 mi NE 4.6 mph - N/A   Clear
10:58 PM 73.8 °F - 67.5 °F 81% 30.10 in 10.0 mi East 4.6 mph - N/A   Clear
11:58 PM 72.1 °F - 68.5 °F 88% 30.10 in 10.0 mi East 4.6 mph - N/A   Clear